Time;durP1;ratioP1;P1;durP2;ratioP2;P2;SDS_P1;SDS_P2;PMS_P1;PMS_P2;Temp;Humidity;BMP_temperature;BMP_pressure;BME280_temperature;BME280_humidity;BME280_pressure;Samples;Min_cycle;Max_cycle;Signal;HPM_P1;HPM_P2
2023/12/24 00:00:30;;;;;;;0.50;0.40;;;8.60;99.90;;;;;;4963786;28;20532;-73
2023/12/24 00:02:56;;;;;;;0.40;0.40;;;8.50;99.90;;;;;;4960781;28;20041;-73
2023/12/24 00:05:21;;;;;;;0.85;0.20;;;8.60;99.90;;;;;;4973413;28;20365;-73
2023/12/24 00:07:47;;;;;;;0.38;0.30;;;8.60;99.90;;;;;;4966918;28;20054;-74
2023/12/24 00:10:13;;;;;;;0.17;0.17;;;8.60;99.90;;;;;;4966390;28;20472;-73
2023/12/24 00:12:38;;;;;;;0.50;0.50;;;8.60;99.90;;;;;;4961866;28;20034;-73
2023/12/24 00:15:05;;;;;;;0.40;0.30;;;8.60;99.90;;;;;;4967316;28;20071;-73
2023/12/24 00:17:31;;;;;;;0.20;0.20;;;8.60;99.90;;;;;;4959267;28;20101;-73
2023/12/24 00:19:58;;;;;;;0.70;0.30;;;8.50;99.90;;;;;;4966749;28;20451;-74
2023/12/24 00:22:27;;;;;;;0.50;0.22;;;8.50;99.90;;;;;;4965019;28;20035;-73
2023/12/24 00:24:53;;;;;;;0.23;0.10;;;8.40;99.90;;;;;;4961220;28;20065;-73
2023/12/24 00:27:19;;;;;;;2.00;0.22;;;8.30;99.90;;;;;;4966715;28;20058;-74
2023/12/24 00:29:44;;;;;;;0.45;0.30;;;8.40;99.90;;;;;;4962879;28;20038;-74
2023/12/24 00:32:10;;;;;;;0.70;0.28;;;8.40;99.90;;;;;;4961037;28;20027;-74
2023/12/24 00:34:36;;;;;;;0.40;0.10;;;8.40;99.90;;;;;;4961224;28;20057;-74
2023/12/24 00:37:02;;;;;;;0.50;0.40;;;8.40;99.90;;;;;;4965588;28;20102;-74
2023/12/24 00:39:27;;;;;;;0.82;0.30;;;8.50;99.90;;;;;;4964396;28;20074;-73
2023/12/24 00:41:53;;;;;;;1.35;0.50;;;8.50;99.90;;;;;;4965497;28;20033;-73
2023/12/24 00:44:18;;;;;;;0.65;0.28;;;8.50;99.90;;;;;;4966076;28;20031;-73
2023/12/24 00:46:44;;;;;;;0.25;0.20;;;8.60;99.90;;;;;;4959941;28;20042;-73
2023/12/24 00:49:10;;;;;;;0.10;0.10;;;8.60;99.90;;;;;;4959099;28;20506;-73
2023/12/24 00:51:42;;;;;;;1.75;0.10;;;8.60;99.90;;;;;;4963777;28;20043;-73
2023/12/24 00:54:08;;;;;;;0.70;0.13;;;8.70;99.90;;;;;;4956094;28;20038;-73
2023/12/24 00:56:33;;;;;;;1.02;0.30;;;8.60;99.90;;;;;;4961283;28;20023;-73
2023/12/24 00:58:59;;;;;;;1.45;0.30;;;8.60;99.90;;;;;;4956940;28;20045;-73
2023/12/24 01:01:25;;;;;;;0.80;0.20;;;8.50;99.90;;;;;;4968229;28;20085;-73
2023/12/24 01:03:50;;;;;;;0.10;0.10;;;8.60;99.90;;;;;;4964782;28;20027;-73
2023/12/24 01:06:16;;;;;;;4.63;0.20;;;8.60;99.90;;;;;;4959782;28;20023;-73
2023/12/24 01:08:42;;;;;;;0.30;0.10;;;8.60;99.90;;;;;;4960777;28;20160;-73
2023/12/24 01:11:08;;;;;;;0.57;0.30;;;8.50;99.90;;;;;;4961097;28;20467;-73
2023/12/24 01:13:33;;;;;;;0.75;0.40;;;8.50;99.90;;;;;;4963433;28;20424;-73
2023/12/24 01:16:01;;;;;;;0.40;0.20;;;8.50;99.90;;;;;;4967984;28;20042;-73
2023/12/24 01:18:26;;;;;;;0.30;0.20;;;8.50;99.90;;;;;;4963119;28;20428;-73
2023/12/24 01:20:52;;;;;;;0.30;0.20;;;8.40;99.90;;;;;;4969255;28;20038;-73
2023/12/24 01:23:18;;;;;;;0.40;0.17;;;8.40;99.90;;;;;;4967617;28;20031;-73
2023/12/24 01:25:44;;;;;;;0.20;0.10;;;8.40;99.90;;;;;;4951242;28;20176;-73
2023/12/24 01:28:10;;;;;;;0.65;0.13;;;8.30;99.90;;;;;;4963465;28;20030;-73
2023/12/24 01:30:35;;;;;;;0.93;0.20;;;8.30;99.90;;;;;;4967773;28;20035;-73
2023/12/24 01:33:01;;;;;;;0.32;0.20;;;8.40;99.90;;;;;;4962389;28;20054;-73
2023/12/24 01:35:26;;;;;;;1.27;0.28;;;8.40;99.90;;;;;;4955619;28;20043;-73
2023/12/24 01:37:52;;;;;;;0.28;0.28;;;8.50;99.90;;;;;;4961765;28;20026;-73
2023/12/24 01:40:17;;;;;;;0.13;0.10;;;8.50;99.90;;;;;;4968770;28;20037;-73
2023/12/24 01:42:46;;;;;;;1.05;0.30;;;8.60;99.90;;;;;;4970205;28;20027;-73
2023/12/24 01:45:12;;;;;;;0.40;0.20;;;8.60;99.90;;;;;;4961840;28;20085;-73
2023/12/24 01:47:38;;;;;;;0.50;0.10;;;8.60;99.90;;;;;;4961115;28;20034;-73
2023/12/24 01:50:05;;;;;;;1.25;0.40;;;8.60;99.90;;;;;;4965742;28;20448;-73
2023/12/24 01:52:30;;;;;;;1.13;0.20;;;8.60;99.90;;;;;;4962272;28;20063;-73
2023/12/24 01:54:56;;;;;;;0.80;0.32;;;8.60;99.90;;;;;;4962047;28;20062;-73
2023/12/24 01:57:22;;;;;;;1.60;0.28;;;8.50;99.90;;;;;;4966052;28;20035;-73
2023/12/24 01:59:49;;;;;;;0.80;0.28;;;8.40;99.90;;;;;;4959465;28;20023;-73
2023/12/24 02:02:15;;;;;;;1.65;0.38;;;8.50;99.90;;;;;;4956172;28;20107;-73
2023/12/24 02:04:42;;;;;;;0.40;0.20;;;8.70;99.90;;;;;;4962712;28;20663;-73
2023/12/24 02:07:08;;;;;;;0.95;0.32;;;8.60;99.90;;;;;;4960252;28;20440;-73
2023/12/24 02:09:34;;;;;;;0.60;0.30;;;8.60;99.90;;;;;;4970770;28;20023;-73
2023/12/24 02:11:59;;;;;;;0.52;0.22;;;8.60;99.90;;;;;;4968359;28;20086;-73
2023/12/24 02:14:25;;;;;;;0.40;0.30;;;8.70;99.90;;;;;;4968631;28;20098;-73
2023/12/24 02:16:53;;;;;;;1.25;0.30;;;8.80;99.90;;;;;;4972858;28;20055;-73
2023/12/24 02:19:19;;;;;;;0.68;0.43;;;8.80;99.90;;;;;;4960735;28;20039;-73
2023/12/24 02:21:44;;;;;;;0.50;0.40;;;8.80;99.90;;;;;;4962392;28;20031;-73
2023/12/24 02:24:10;;;;;;;0.30;0.30;;;8.80;99.90;;;;;;4968293;28;20085;-73
2023/12/24 02:27:01;;;;;;;1.20;0.30;;;8.70;99.90;;;;;;4964489;28;20027;-73
2023/12/24 02:29:31;;;;;;;0.60;0.30;;;8.70;99.90;;;;;;4962829;28;20030;-73
2023/12/24 02:32:07;;;;;;;;;;;8.60;99.90;;;;;;4972060;28;20377;-73
2023/12/24 02:34:35;;;;;;;1.58;0.40;;;8.60;99.90;;;;;;4974821;28;19996;-73
2023/12/24 02:37:01;;;;;;;0.47;0.25;;;8.60;99.90;;;;;;4964456;28;20420;-73
2023/12/24 02:39:26;;;;;;;0.88;0.20;;;8.60;99.90;;;;;;4967265;28;20110;-73
2023/12/24 02:41:52;;;;;;;1.40;0.40;;;8.60;99.90;;;;;;4962598;28;20104;-73
2023/12/24 02:44:18;;;;;;;0.52;0.20;;;8.70;99.90;;;;;;4967855;28;20042;-73
2023/12/24 02:46:43;;;;;;;0.40;0.40;;;8.70;99.90;;;;;;4961186;28;20032;-73
2023/12/24 02:49:09;;;;;;;0.57;0.40;;;8.70;99.90;;;;;;4963640;28;20031;-73
2023/12/24 02:51:34;;;;;;;0.93;0.20;;;8.60;99.90;;;;;;4970258;28;20110;-73
2023/12/24 02:54:00;;;;;;;1.20;0.40;;;8.70;99.90;;;;;;4960776;28;20031;-73
2023/12/24 02:56:25;;;;;;;1.10;0.38;;;8.70;99.90;;;;;;4965363;28;20038;-73
2023/12/24 02:58:51;;;;;;;0.38;0.38;;;8.70;99.90;;;;;;4970329;28;20396;-73
2023/12/24 03:01:17;;;;;;;1.60;0.40;;;8.60;99.90;;;;;;4968430;28;20089;-73
2023/12/24 03:03:42;;;;;;;0.20;0.20;;;8.60;99.90;;;;;;4962393;28;20019;-73
2023/12/24 03:06:08;;;;;;;0.50;0.35;;;8.70;99.90;;;;;;4959617;28;20357;-73
2023/12/24 03:08:33;;;;;;;0.15;0.15;;;8.70;99.90;;;;;;4973525;28;20102;-73
2023/12/24 03:11:02;;;;;;;0.90;0.30;;;8.70;99.90;;;;;;4974809;28;20035;-73
2023/12/24 03:13:27;;;;;;;1.83;0.50;;;8.60;99.90;;;;;;4961797;28;20440;-73
2023/12/24 03:15:53;;;;;;;2.03;0.50;;;8.70;99.90;;;;;;4960450;28;20047;-73
2023/12/24 03:18:19;;;;;;;1.23;0.70;;;8.60;99.90;;;;;;4966624;28;20448;-73
2023/12/24 03:20:44;;;;;;;0.43;0.30;;;8.60;99.90;;;;;;4969902;28;20057;-73
2023/12/24 03:23:10;;;;;;;1.00;0.25;;;8.70;99.90;;;;;;4969456;28;20037;-73
2023/12/24 03:25:36;;;;;;;2.17;0.20;;;8.70;99.90;;;;;;4972126;28;20030;-73
2023/12/24 03:28:02;;;;;;;0.35;0.35;;;8.80;99.90;;;;;;4959386;28;20424;-73
2023/12/24 03:30:28;;;;;;;1.15;0.40;;;8.80;99.90;;;;;;4969356;28;20034;-73
2023/12/24 03:32:53;;;;;;;0.75;0.30;;;8.80;99.90;;;;;;4968112;28;20045;-73
2023/12/24 03:35:19;;;;;;;2.45;0.30;;;8.80;99.90;;;;;;4961954;28;20066;-73
2023/12/24 03:37:44;;;;;;;0.63;0.28;;;8.80;99.90;;;;;;4960625;28;20028;-73
2023/12/24 03:40:11;;;;;;;0.88;0.40;;;8.80;99.90;;;;;;4967192;28;20383;-73
2023/12/24 03:42:36;;;;;;;0.98;0.28;;;8.80;99.90;;;;;;4972056;28;20080;-73
2023/12/24 03:45:02;;;;;;;0.93;0.30;;;8.80;99.90;;;;;;4963486;28;20106;-73
2023/12/24 03:47:28;;;;;;;0.57;0.38;;;8.80;99.90;;;;;;4964656;28;20117;-73
2023/12/24 03:49:54;;;;;;;1.70;0.32;;;8.70;99.90;;;;;;4958740;28;20162;-73
2023/12/24 03:52:19;;;;;;;0.25;0.25;;;8.80;99.90;;;;;;4966120;28;20034;-75
2023/12/24 03:54:45;;;;;;;1.85;0.20;;;8.70;99.90;;;;;;4969721;28;20420;-74
2023/12/24 03:57:10;;;;;;;1.33;0.40;;;8.80;99.90;;;;;;4968721;28;20031;-73
2023/12/24 03:59:38;;;;;;;0.28;0.20;;;8.80;99.90;;;;;;4969007;28;20374;-73
2023/12/24 04:02:04;;;;;;;2.30;0.47;;;8.70;99.90;;;;;;4967655;28;20023;-73
2023/12/24 04:04:29;;;;;;;0.50;0.13;;;8.70;99.90;;;;;;4964293;28;20031;-73
2023/12/24 04:06:55;;;;;;;0.45;0.30;;;8.70;99.90;;;;;;4967965;28;20415;-73
2023/12/24 04:09:21;;;;;;;0.32;0.30;;;8.70;99.90;;;;;;4960983;28;20022;-73
2023/12/24 04:11:50;;;;;;;0.30;0.30;;;8.70;99.90;;;;;;4969521;28;20032;-73
2023/12/24 04:14:16;;;;;;;1.15;0.32;;;8.60;99.90;;;;;;4966861;28;20015;-73
2023/12/24 04:16:42;;;;;;;1.55;0.55;;;8.60;99.90;;;;;;4971811;28;20883;-73
2023/12/24 04:19:07;;;;;;;4.30;0.82;;;8.60;99.90;;;;;;4962597;28;20100;-73
2023/12/24 04:21:33;;;;;;;0.55;0.30;;;8.70;99.90;;;;;;4970370;28;20034;-73
2023/12/24 04:23:59;;;;;;;1.67;0.50;;;8.70;99.90;;;;;;4957483;28;20027;-74
2023/12/24 04:26:25;;;;;;;0.40;0.30;;;8.70;99.90;;;;;;4966636;28;20365;-72
2023/12/24 04:28:51;;;;;;;0.30;0.30;;;8.70;99.90;;;;;;4963927;28;20045;-73
2023/12/24 04:31:17;;;;;;;0.73;0.38;;;8.70;99.90;;;;;;4966965;28;20435;-73
2023/12/24 04:33:43;;;;;;;0.50;0.40;;;8.70;99.90;;;;;;4968931;28;20080;-73
2023/12/24 04:36:08;;;;;;;1.75;0.60;;;8.70;99.90;;;;;;4967378;28;20027;-72
2023/12/24 04:38:34;;;;;;;0.68;0.40;;;8.70;99.90;;;;;;4960623;28;20027;-73
2023/12/24 04:40:59;;;;;;;1.52;0.40;;;8.70;99.90;;;;;;4970466;28;20052;-72
2023/12/24 04:43:25;;;;;;;0.40;0.40;;;8.60;99.90;;;;;;4970647;28;20077;-72
2023/12/24 04:45:51;;;;;;;1.63;0.60;;;8.70;99.90;;;;;;4969665;28;20028;-72
2023/12/24 04:48:16;;;;;;;0.52;0.30;;;8.70;99.90;;;;;;4963010;28;20484;-73
2023/12/24 04:50:42;;;;;;;1.20;0.65;;;8.70;99.90;;;;;;4969739;28;20045;-74
2023/12/24 04:53:08;;;;;;;1.10;0.50;;;8.80;99.90;;;;;;4959628;28;20081;-73
2023/12/24 04:55:35;;;;;;;2.42;0.43;;;8.80;99.90;;;;;;4962754;28;20035;-72
2023/12/24 04:58:00;;;;;;;1.35;0.43;;;8.80;99.90;;;;;;4958238;28;20019;-73
2023/12/24 05:00:26;;;;;;;0.40;0.40;;;8.80;99.90;;;;;;4962167;28;20034;-75
2023/12/24 05:02:52;;;;;;;0.70;0.57;;;8.80;99.90;;;;;;4959667;28;20439;-74
2023/12/24 05:05:18;;;;;;;1.55;0.40;;;8.70;99.90;;;;;;4955479;28;20057;-73
2023/12/24 05:07:43;;;;;;;0.70;0.60;;;8.70;99.90;;;;;;4968303;28;20295;-73
2023/12/24 05:10:09;;;;;;;3.28;1.30;;;8.60;99.90;;;;;;4966287;28;20042;-72
2023/12/24 05:12:34;;;;;;;0.20;0.20;;;8.60;99.90;;;;;;4960675;28;20031;-74
2023/12/24 05:15:03;;;;;;;1.10;0.38;;;8.50;99.90;;;;;;4965870;28;20058;-72
2023/12/24 05:17:29;;;;;;;0.73;0.47;;;8.50;99.90;;;;;;4969421;28;20026;-73
2023/12/24 05:19:54;;;;;;;1.23;0.55;;;8.50;99.90;;;;;;4961990;28;20049;-72
2023/12/24 05:22:20;;;;;;;1.10;0.45;;;8.50;99.90;;;;;;4967379;28;20045;-72
2023/12/24 05:24:46;;;;;;;0.82;0.40;;;8.50;99.90;;;;;;4972095;28;20054;-73
2023/12/24 05:27:12;;;;;;;0.55;0.47;;;8.40;99.90;;;;;;4970509;28;20062;-73
2023/12/24 05:29:39;;;;;;;2.58;0.60;;;8.40;99.90;;;;;;4962736;28;20035;-73
2023/12/24 05:32:05;;;;;;;1.90;0.30;;;8.40;99.90;;;;;;4958958;28;20027;-72
2023/12/24 05:34:31;;;;;;;0.30;0.30;;;8.50;99.90;;;;;;4963113;28;20165;-73
2023/12/24 05:37:00;;;;;;;1.13;0.30;;;8.40;99.90;;;;;;4960097;28;20394;-73
2023/12/24 05:39:26;;;;;;;1.17;0.25;;;8.30;99.90;;;;;;4965474;28;20034;-73
2023/12/24 05:41:52;;;;;;;0.38;0.30;;;8.30;99.90;;;;;;4969083;28;20031;-73
2023/12/24 05:44:17;;;;;;;0.60;0.50;;;8.40;99.90;;;;;;4969242;28;20027;-73
2023/12/24 05:46:43;;;;;;;0.47;0.40;;;8.40;99.90;;;;;;4961783;28;20098;-73
2023/12/24 05:49:08;;;;;;;1.08;0.40;;;8.40;99.90;;;;;;4968281;28;20021;-73
2023/12/24 05:51:34;;;;;;;1.30;0.40;;;8.50;99.90;;;;;;4963108;28;20035;-73
2023/12/24 05:54:00;;;;;;;0.38;0.30;;;8.40;99.90;;;;;;4965777;28;20031;-73
2023/12/24 05:56:25;;;;;;;0.68;0.35;;;8.40;99.90;;;;;;4963687;28;20035;-74
2023/12/24 05:58:51;;;;;;;1.45;0.45;;;8.50;99.90;;;;;;4966685;28;20396;-73
2023/12/24 06:01:17;;;;;;;0.50;0.20;;;8.40;99.90;;;;;;4968242;28;20031;-73
2023/12/24 06:03:42;;;;;;;0.75;0.40;;;8.40;99.90;;;;;;4963670;28;20022;-73
2023/12/24 06:06:08;;;;;;;0.45;0.32;;;8.40;99.90;;;;;;4970137;28;20026;-73
2023/12/24 06:08:33;;;;;;;0.40;0.30;;;8.40;99.90;;;;;;4962824;28;20046;-73
2023/12/24 06:10:59;;;;;;;1.13;0.30;;;8.40;99.90;;;;;;4964552;28;20111;-74
2023/12/24 06:13:24;;;;;;;0.38;0.22;;;8.50;99.90;;;;;;4966331;28;20467;-74
2023/12/24 06:15:50;;;;;;;1.27;0.28;;;8.50;99.90;;;;;;4964611;28;20415;-74
2023/12/24 06:18:16;;;;;;;0.30;0.30;;;8.50;99.90;;;;;;4964844;28;20035;-74
2023/12/24 06:20:42;;;;;;;0.13;0.13;;;8.60;99.90;;;;;;4963532;28;20031;-74
2023/12/24 06:23:08;;;;;;;0.20;0.20;;;8.60;99.90;;;;;;4968969;28;20042;-74
2023/12/24 06:25:35;;;;;;;0.30;0.30;;;8.60;99.90;;;;;;4966565;28;20019;-75
2023/12/24 06:28:00;;;;;;;0.45;0.13;;;8.60;99.90;;;;;;4969862;28;20027;-74
2023/12/24 06:30:26;;;;;;;1.25;0.30;;;8.50;99.90;;;;;;4974555;28;20361;-74
2023/12/24 06:32:51;;;;;;;1.35;0.25;;;8.60;99.90;;;;;;4971247;28;20064;-74
2023/12/24 06:35:17;;;;;;;2.67;0.50;;;8.60;99.90;;;;;;4944626;28;20035;-74
2023/12/24 06:37:42;;;;;;;0.75;0.32;;;8.50;99.90;;;;;;4963969;28;20035;-74
2023/12/24 06:40:09;;;;;;;0.30;0.20;;;8.50;99.90;;;;;;4971021;28;20457;-74
2023/12/24 06:42:34;;;;;;;0.50;0.25;;;8.50;99.90;;;;;;4972915;28;20034;-74
2023/12/24 06:45:00;;;;;;;0.20;0.20;;;8.50;99.90;;;;;;4964370;28;20066;-74
2023/12/24 06:47:25;;;;;;;0.47;0.17;;;8.50;99.90;;;;;;4965604;28;20046;-74
2023/12/24 06:49:51;;;;;;;0.50;0.20;;;8.60;99.90;;;;;;4972981;28;20079;-74
2023/12/24 06:52:16;;;;;;;1.80;0.55;;;8.60;99.90;;;;;;4967446;28;20031;-74
2023/12/24 06:54:42;;;;;;;0.30;0.20;;;8.60;99.90;;;;;;4961694;28;20103;-74
2023/12/24 06:57:08;;;;;;;0.40;0.25;;;8.60;99.90;;;;;;4969108;28;20034;-74
2023/12/24 06:59:34;;;;;;;0.70;0.20;;;8.60;99.90;;;;;;4971127;28;20027;-74
2023/12/24 07:01:59;;;;;;;0.17;0.17;;;8.70;99.90;;;;;;4959411;28;20519;-74
2023/12/24 07:04:25;;;;;;;0.30;0.30;;;8.70;99.90;;;;;;4964488;28;20065;-75
2023/12/24 07:06:51;;;;;;;0.63;0.35;;;8.70;99.90;;;;;;4974390;28;20392;-74
2023/12/24 07:09:16;;;;;;;2.08;0.30;;;8.70;99.90;;;;;;4974850;28;20038;-74
2023/12/24 07:11:42;;;;;;;0.43;0.20;;;8.70;99.90;;;;;;4963257;28;20031;-75
2023/12/24 07:14:07;;;;;;;1.27;0.40;;;8.70;99.90;;;;;;4987157;28;20027;-74
2023/12/24 07:16:33;;;;;;;0.55;0.20;;;8.70;99.90;;;;;;4988599;28;20465;-74
2023/12/24 07:18:59;;;;;;;0.63;0.50;;;8.70;99.90;;;;;;4986183;28;20053;-73
2023/12/24 07:21:24;;;;;;;0.20;0.10;;;8.80;99.90;;;;;;4981930;28;20037;-74
2023/12/24 07:23:50;;;;;;;0.88;0.38;;;8.90;99.90;;;;;;4959628;28;20110;-75
2023/12/24 07:26:15;;;;;;;1.80;0.30;;;8.90;99.90;;;;;;4967182;28;20034;-74
2023/12/24 07:28:41;;;;;;;0.50;0.30;;;8.90;99.90;;;;;;4967279;28;20090;-74
2023/12/24 07:31:07;;;;;;;0.35;0.28;;;8.90;99.90;;;;;;4965409;28;20048;-75
2023/12/24 07:33:33;;;;;;;0.13;0.13;;;9.00;99.90;;;;;;4960132;28;20042;-74
2023/12/24 07:35:58;;;;;;;0.47;0.32;;;9.00;99.90;;;;;;4965561;28;20037;-73
2023/12/24 07:38:29;;;;;;;0.65;0.40;;;9.00;99.90;;;;;;4967609;28;20047;-75
2023/12/24 07:40:55;;;;;;;0.20;0.20;;;8.90;99.90;;;;;;4970619;28;20031;-74
2023/12/24 07:43:21;;;;;;;1.00;0.38;;;8.80;99.90;;;;;;4965584;28;20199;-75
2023/12/24 07:45:47;;;;;;;0.73;0.47;;;8.80;99.90;;;;;;4958720;28;20102;-74
2023/12/24 07:48:12;;;;;;;0.45;0.45;;;8.70;99.90;;;;;;4971182;28;20109;-74
2023/12/24 07:50:38;;;;;;;0.52;0.20;;;8.70;99.90;;;;;;4966661;28;20149;-74
2023/12/24 07:53:04;;;;;;;1.10;0.10;;;8.80;99.90;;;;;;4961037;28;20490;-74
2023/12/24 07:55:29;;;;;;;0.55;0.30;;;8.80;99.90;;;;;;4967981;28;20027;-72
2023/12/24 07:57:55;;;;;;;2.55;0.28;;;8.80;99.90;;;;;;4964623;28;20029;-74
2023/12/24 08:00:21;;;;;;;0.15;0.10;;;8.90;99.90;;;;;;4962560;28;20050;-73
2023/12/24 08:02:47;;;;;;;0.47;0.45;;;8.80;99.90;;;;;;4955574;28;20099;-73
2023/12/24 08:05:13;;;;;;;0.68;0.10;;;8.80;99.90;;;;;;4967706;28;20084;-73
2023/12/24 08:07:39;;;;;;;0.30;0.20;;;8.90;99.90;;;;;;4956380;28;20031;-74
2023/12/24 08:10:05;;;;;;;0.32;0.10;;;8.90;99.90;;;;;;4962597;28;20039;-73
2023/12/24 08:12:31;;;;;;;0.65;0.30;;;9.00;99.90;;;;;;4952775;28;20042;-73
2023/12/24 08:14:57;;;;;;;0.65;0.10;;;9.00;99.90;;;;;;4955162;28;20106;-73
2023/12/24 08:17:22;;;;;;;0.40;0.20;;;9.00;99.90;;;;;;4953399;28;20699;-72
2023/12/24 08:19:48;;;;;;;0.35;0.30;;;9.00;99.90;;;;;;4957159;28;20158;-75
2023/12/24 08:22:13;;;;;;;0.43;0.20;;;9.10;99.90;;;;;;4961239;28;20027;-76
2023/12/24 08:24:39;;;;;;;0.25;0.20;;;9.20;99.90;;;;;;4966762;28;20034;-73
2023/12/24 08:27:05;;;;;;;0.13;0.13;;;9.20;99.90;;;;;;4962482;28;20090;-73
2023/12/24 08:29:31;;;;;;;0.20;0.20;;;9.30;99.90;;;;;;4950186;28;20035;-72
2023/12/24 08:31:57;;;;;;;0.38;0.10;;;9.40;99.90;;;;;;4969157;28;20062;-73
2023/12/24 08:34:23;;;;;;;1.08;0.10;;;9.40;99.90;;;;;;4960164;28;20188;-72
2023/12/24 08:36:48;;;;;;;0.43;0.20;;;9.40;99.90;;;;;;4964769;28;20033;-74
2023/12/24 08:39:14;;;;;;;0.20;0.10;;;9.50;99.90;;;;;;4967849;28;20031;-73
2023/12/24 08:41:40;;;;;;;1.83;0.13;;;9.50;99.90;;;;;;4966356;28;20473;-72
2023/12/24 08:44:06;;;;;;;0.40;0.20;;;9.50;99.90;;;;;;4963920;28;20053;-70
2023/12/24 08:46:31;;;;;;;0.98;0.10;;;9.60;99.90;;;;;;4971361;28;20033;-71
2023/12/24 08:48:58;;;;;;;1.15;0.28;;;9.60;99.90;;;;;;4968983;28;20027;-73
2023/12/24 08:51:24;;;;;;;0.55;0.20;;;9.60;99.90;;;;;;4957535;28;20035;-73
2023/12/24 08:53:49;;;;;;;0.22;0.20;;;9.60;99.90;;;;;;4954053;28;20421;-74
2023/12/24 08:56:15;;;;;;;0.10;0.10;;;9.70;99.90;;;;;;4962965;28;20397;-70
2023/12/24 08:58:40;;;;;;;0.47;0.20;;;9.70;99.90;;;;;;4966040;28;20023;-69
2023/12/24 09:01:06;;;;;;;0.10;0.10;;;9.70;99.90;;;;;;4969300;28;20035;-72
2023/12/24 09:03:32;;;;;;;0.80;0.30;;;9.80;99.90;;;;;;4958870;28;20423;-69
2023/12/24 09:05:57;;;;;;;0.20;0.20;;;9.90;99.90;;;;;;4964381;28;20038;-69
2023/12/24 09:08:23;;;;;;;2.38;0.35;;;10.00;99.90;;;;;;4970487;28;20475;-72
2023/12/24 09:10:48;;;;;;;0.70;0.10;;;10.10;99.90;;;;;;4967510;28;20038;-71
2023/12/24 09:13:14;;;;;;;0.20;0.20;;;10.10;99.90;;;;;;4962197;28;20051;-73
2023/12/24 09:15:39;;;;;;;0.25;0.25;;;10.20;99.90;;;;;;4966915;28;20082;-72
2023/12/24 09:18:05;;;;;;;0.30;0.20;;;10.10;99.90;;;;;;4957940;28;20350;-73
2023/12/24 09:20:31;;;;;;;0.82;0.10;;;10.00;99.90;;;;;;4963865;28;20038;-72
2023/12/24 09:22:56;;;;;;;0.57;0.35;;;9.80;99.90;;;;;;4970319;28;20027;-72
2023/12/24 09:25:22;;;;;;;1.35;0.10;;;9.70;99.90;;;;;;4969211;28;20528;-72
2023/12/24 09:27:47;;;;;;;0.10;0.10;;;9.60;99.90;;;;;;4966638;28;20032;-71
2023/12/24 09:30:13;;;;;;;0.20;0.20;;;9.30;99.90;;;;;;4964944;28;20491;-73
2023/12/24 09:32:41;;;;;;;0.25;0.10;;;9.20;99.90;;;;;;4958285;28;20034;-73
2023/12/24 09:35:07;;;;;;;0.20;0.10;;;9.10;99.90;;;;;;4970224;28;20027;-75
2023/12/24 09:37:32;;;;;;;0.20;0.15;;;9.10;99.90;;;;;;4958958;28;20388;-73
2023/12/24 09:39:58;;;;;;;0.82;0.20;;;9.00;99.90;;;;;;4962507;28;20041;-74
2023/12/24 09:42:23;;;;;;;0.50;0.22;;;9.00;99.90;;;;;;4969881;28;20031;-75
2023/12/24 09:44:49;;;;;;;0.40;0.30;;;9.00;99.90;;;;;;4959304;28;20086;-75
2023/12/24 09:47:15;;;;;;;1.08;0.30;;;8.90;99.90;;;;;;4967650;28;20042;-74
2023/12/24 09:49:40;;;;;;;0.52;0.30;;;9.00;99.90;;;;;;4967432;28;20023;-75
2023/12/24 09:52:06;;;;;;;0.80;0.32;;;8.90;99.90;;;;;;4959417;28;20101;-74
2023/12/24 09:54:32;;;;;;;2.22;0.20;;;8.80;99.90;;;;;;4969353;28;20392;-73
2023/12/24 09:56:58;;;;;;;0.47;0.20;;;8.70;99.90;;;;;;4971220;28;20035;-74
2023/12/24 09:59:24;;;;;;;2.30;0.30;;;8.70;99.90;;;;;;4956007;28;20028;-74
2023/12/24 10:01:49;;;;;;;0.52;0.30;;;8.70;99.90;;;;;;4953581;28;20042;-74
2023/12/24 10:04:15;;;;;;;0.82;0.25;;;8.60;99.90;;;;;;4968270;28;20519;-74
2023/12/24 10:06:54;;;;;;;0.15;0.15;;;8.60;99.90;;;;;;4969607;28;20110;-73
2023/12/24 10:09:22;;;;;;;0.45;0.40;;;8.60;99.90;;;;;;4960020;28;20031;-72
2023/12/24 10:12:04;;;;;;;0.40;0.32;;;8.60;99.90;;;;;;4966253;28;20035;-74
2023/12/24 10:14:30;;;;;;;0.35;0.30;;;8.60;99.90;;;;;;4966834;28;20032;-73
2023/12/24 10:16:55;;;;;;;1.00;0.52;;;8.70;99.90;;;;;;4964929;28;20150;-74
2023/12/24 10:19:25;;;;;;;0.40;0.17;;;8.80;99.90;;;;;;4961323;28;20034;-74
2023/12/24 10:22:00;;;;;;;1.30;0.40;;;8.90;99.90;;;;;;4959534;28;20485;-73
2023/12/24 10:24:31;;;;;;;2.67;0.22;;;8.90;99.90;;;;;;4968788;28;20030;-73
2023/12/24 10:27:11;;;;;;;1.15;0.28;;;9.00;99.90;;;;;;4969009;28;20118;-73
2023/12/24 10:29:39;;;;;;;0.20;0.20;;;9.00;99.90;;;;;;4957870;28;20333;-73
2023/12/24 10:32:05;;;;;;;0.30;0.20;;;9.10;99.90;;;;;;4971596;28;20090;-73
2023/12/24 10:34:33;;;;;;;1.38;0.30;;;9.10;99.90;;;;;;4974117;28;20031;-71
2023/12/24 10:37:21;;;;;;;0.63;0.32;;;9.20;99.90;;;;;;4968856;28;20387;-72
2023/12/24 10:39:46;;;;;;;0.20;0.20;;;9.30;99.90;;;;;;4964198;28;20031;-72
2023/12/24 10:42:12;;;;;;;0.17;0.10;;;9.30;99.90;;;;;;4972218;28;20025;-74
2023/12/24 10:44:39;;;;;;;1.25;0.30;;;9.40;99.90;;;;;;4974588;28;20455;-74
2023/12/24 10:47:05;;;;;;;0.90;0.10;;;9.50;99.90;;;;;;4966056;28;20077;-74
2023/12/24 10:49:31;;;;;;;0.10;0.10;;;9.50;99.90;;;;;;4968211;28;20038;-73
2023/12/24 10:51:59;;;;;;;0.15;0.15;;;9.60;99.90;;;;;;4969145;28;20468;-75
2023/12/24 10:54:26;;;;;;;0.10;0.10;;;9.60;99.90;;;;;;4957319;28;20102;-71
2023/12/24 10:57:11;;;;;;;2.35;0.20;;;9.70;99.90;;;;;;4968991;28;20486;-74
2023/12/24 10:59:57;;;;;;;0.28;0.15;;;9.70;99.90;;;;;;4972250;28;20038;-71
2023/12/24 11:02:23;;;;;;;0.10;0.10;;;9.70;99.90;;;;;;4958744;28;20098;-74
2023/12/24 11:04:49;;;;;;;0.20;0.20;;;9.80;99.90;;;;;;4958339;28;20476;-71
2023/12/24 11:07:33;;;;;;;0.20;0.20;;;9.80;99.90;;;;;;4971002;28;20110;-72
2023/12/24 11:10:04;;;;;;;0.25;0.10;;;9.90;99.90;;;;;;4958337;28;20039;-73
2023/12/24 11:12:34;;;;;;;0.45;0.30;;;9.90;99.90;;;;;;4966136;28;20079;-73
2023/12/24 11:15:00;;;;;;;0.20;0.10;;;10.00;99.90;;;;;;4970289;28;20411;-75
2023/12/24 11:17:38;;;;;;;2.10;0.40;;;10.10;99.90;;;;;;4973304;28;20034;-74
2023/12/24 11:20:26;;;;;;;0.50;0.20;;;10.10;99.90;;;;;;4965083;28;20082;-74
2023/12/24 11:23:06;;;;;;;0.70;0.28;;;10.20;99.90;;;;;;4968326;28;20023;-73
2023/12/24 11:26:01;;;;;;;0.22;0.10;;;10.20;99.90;;;;;;4972354;28;20042;-71
2023/12/24 11:28:35;;;;;;;0.20;0.20;;;10.20;99.90;;;;;;4939218;28;20464;-73
2023/12/24 11:31:02;;;;;;;0.30;0.30;;;10.20;99.90;;;;;;4962338;28;20041;-75
2023/12/24 11:33:28;;;;;;;0.75;0.30;;;10.30;99.90;;;;;;4970054;28;20124;-75
2023/12/24 11:35:56;;;;;;;0.10;0.10;;;10.30;99.90;;;;;;4974225;28;20023;-74
2023/12/24 11:38:34;;;;;;;0.75;0.20;;;10.40;99.90;;;;;;4966352;28;20028;-73
2023/12/24 11:41:06;;;;;;;0.10;0.10;;;10.40;99.90;;;;;;4973123;28;20034;-73
2023/12/24 11:43:32;;;;;;;0.10;0.10;;;10.30;99.90;;;;;;4969169;28;20105;-75
2023/12/24 11:45:58;;;;;;;0.17;0.10;;;10.30;99.90;;;;;;4959928;28;20480;-73
2023/12/24 11:48:31;;;;;;;0.75;0.10;;;10.40;99.90;;;;;;4963826;28;20027;-73
2023/12/24 11:51:06;;;;;;;0.20;0.20;;;10.40;99.90;;;;;;4971419;28;20125;-71
2023/12/24 11:53:34;;;;;;;0.22;0.22;;;10.50;99.90;;;;;;4961211;28;20022;-70
2023/12/24 11:56:13;;;;;;;0.82;0.20;;;10.60;99.90;;;;;;4969718;28;20118;-70
2023/12/24 11:58:43;;;;;;;1.13;0.10;;;10.60;99.90;;;;;;4964257;28;20372;-71
2023/12/24 12:01:09;;;;;;;0.10;0.10;;;10.70;99.90;;;;;;4965712;28;20031;-73
2023/12/24 12:03:36;;;;;;;0.40;0.10;;;10.80;99.90;;;;;;4964606;28;20477;-75
2023/12/24 12:06:03;;;;;;;1.58;0.20;;;10.80;99.90;;;;;;4965770;28;20061;-71
2023/12/24 12:08:30;;;;;;;0.20;0.10;;;10.80;99.90;;;;;;4961407;28;20049;-73
2023/12/24 12:10:56;;;;;;;0.85;0.30;;;10.90;99.90;;;;;;4964594;28;20121;-71
2023/12/24 12:13:22;;;;;;;1.58;0.20;;;;;;;;;;4965365;28;20452;-70
2023/12/24 12:15:48;;;;;;;0.17;0.17;;;11.00;99.90;;;;;;4964587;28;20058;-71
2023/12/24 12:18:16;;;;;;;0.82;0.30;;;11.10;99.90;;;;;;4963142;28;20075;-73
2023/12/24 12:20:45;;;;;;;0.13;0.10;;;11.10;99.90;;;;;;4966230;28;20035;-70
2023/12/24 12:23:13;;;;;;;0.38;0.20;;;11.20;99.90;;;;;;4967236;28;20031;-72
2023/12/24 12:25:38;;;;;;;3.25;0.20;;;11.20;99.90;;;;;;4965564;28;20023;-74
2023/12/24 12:28:04;;;;;;;0.82;0.35;;;11.20;99.90;;;;;;4964866;28;20097;-80
2023/12/24 12:30:30;;;;;;;0.55;0.20;;;11.20;99.90;;;;;;4966060;28;20133;-74
2023/12/24 12:32:55;;;;;;;0.32;0.30;;;11.30;99.90;;;;;;4963644;28;20063;-73
2023/12/24 12:35:21;;;;;;;0.63;0.28;;;11.40;99.90;;;;;;4963485;28;20031;-70
2023/12/24 12:37:47;;;;;;;0.22;0.22;;;11.40;99.90;;;;;;4964829;28;20031;-73
2023/12/24 12:40:13;;;;;;;0.20;0.10;;;11.50;99.90;;;;;;4965551;28;20089;-71
2023/12/24 12:42:38;;;;;;;0.20;0.20;;;11.50;99.90;;;;;;4962275;28;20031;-72
2023/12/24 12:45:04;;;;;;;0.32;0.30;;;11.50;99.90;;;;;;4963631;28;20031;-74
2023/12/24 12:47:30;;;;;;;0.30;0.22;;;11.60;99.90;;;;;;4962081;28;20019;-73
2023/12/24 12:49:55;;;;;;;0.10;0.10;;;11.60;99.90;;;;;;4965807;28;20027;-76
2023/12/24 12:52:21;;;;;;;0.65;0.28;;;11.60;99.90;;;;;;4963228;28;20042;-70